sensor_id;sensor_type;location;lat;lon;timestamp;pressure;altitude;pressure_sealevel;temperature;humidity
27643;BME280;15053;48.618;10.024;2022-09-12T00:01:34;94476.63;;;12.75;83.81
27643;BME280;15053;48.618;10.024;2022-09-12T00:04:01;94472.75;;;12.73;83.72
27643;BME280;15053;48.618;10.024;2022-09-12T00:06:36;94472.56;;;12.69;83.56
27643;BME280;15053;48.618;10.024;2022-09-12T00:09:09;94475.00;;;12.66;83.79
27643;BME280;15053;48.618;10.024;2022-09-12T00:11:40;94467.56;;;12.59;83.56
27643;BME280;15053;48.618;10.024;2022-09-12T00:14:08;94478.13;;;12.54;83.86
27643;BME280;15053;48.618;10.024;2022-09-12T00:16:36;94469.50;;;12.54;83.77
27643;BME280;15053;48.618;10.024;2022-09-12T00:19:04;94463.34;;;12.50;83.47
27643;BME280;15053;48.618;10.024;2022-09-12T00:21:33;94471.44;;;12.48;83.92
27643;BME280;15053;48.618;10.024;2022-09-12T00:24:00;94464.66;;;12.47;83.43
27643;BME280;15053;48.618;10.024;2022-09-12T00:26:27;94463.13;;;12.46;83.82
27643;BME280;15053;48.618;10.024;2022-09-12T00:28:54;94457.91;;;12.46;83.95
27643;BME280;15053;48.618;10.024;2022-09-12T00:31:22;94461.31;;;12.47;84.01
27643;BME280;15053;48.618;10.024;2022-09-12T00:33:51;94459.16;;;12.49;84.19
27643;BME280;15053;48.618;10.024;2022-09-12T00:36:19;94454.72;;;12.49;84.42
27643;BME280;15053;48.618;10.024;2022-09-12T00:38:47;94459.63;;;12.51;84.30
27643;BME280;15053;48.618;10.024;2022-09-12T00:41:20;94447.34;;;12.51;83.92
27643;BME280;15053;48.618;10.024;2022-09-12T00:43:50;94447.16;;;12.48;84.23
27643;BME280;15053;48.618;10.024;2022-09-12T00:46:30;94443.88;;;12.42;83.32
27643;BME280;15053;48.618;10.024;2022-09-12T00:49:11;94448.25;;;12.33;83.41
27643;BME280;15053;48.618;10.024;2022-09-12T00:51:43;94447.88;;;12.26;83.36
27643;BME280;15053;48.618;10.024;2022-09-12T00:54:17;94449.81;;;12.20;84.17
27643;BME280;15053;48.618;10.024;2022-09-12T00:56:45;94442.53;;;12.17;84.66
27643;BME280;15053;48.618;10.024;2022-09-12T00:59:30;94443.81;;;12.20;85.03
27643;BME280;15053;48.618;10.024;2022-09-12T01:01:57;94450.22;;;12.14;84.17
27643;BME280;15053;48.618;10.024;2022-09-12T01:04:25;94449.81;;;12.07;84.83
27643;BME280;15053;48.618;10.024;2022-09-12T01:06:54;94448.28;;;12.06;84.80
27643;BME280;15053;48.618;10.024;2022-09-12T01:09:23;94443.53;;;12.08;84.29
27643;BME280;15053;48.618;10.024;2022-09-12T01:11:51;94440.94;;;12.08;85.01
27643;BME280;15053;48.618;10.024;2022-09-12T01:14:19;94435.13;;;12.11;84.42
27643;BME280;15053;48.618;10.024;2022-09-12T01:16:47;94434.03;;;12.12;84.90
27643;BME280;15053;48.618;10.024;2022-09-12T01:22:20;94427.47;;;12.14;84.79
27643;BME280;15053;48.618;10.024;2022-09-12T01:38:38;94406.41;;;11.97;84.33
27643;BME280;15053;48.618;10.024;2022-09-12T01:41:19;94411.34;;;11.99;84.12
27643;BME280;15053;48.618;10.024;2022-09-12T01:46:34;94403.97;;;11.87;83.65
27643;BME280;15053;48.618;10.024;2022-09-12T01:49:21;94400.69;;;11.81;83.76
27643;BME280;15053;48.618;10.024;2022-09-12T01:52:13;94400.13;;;11.84;83.95
27643;BME280;15053;48.618;10.024;2022-09-12T01:54:50;94388.72;;;11.80;83.85
27643;BME280;15053;48.618;10.024;2022-09-12T01:57:31;94391.25;;;11.86;84.09
27643;BME280;15053;48.618;10.024;2022-09-12T02:00:05;94390.19;;;11.87;84.09
27643;BME280;15053;48.618;10.024;2022-09-12T02:02:44;94395.31;;;11.92;84.20
27643;BME280;15053;48.618;10.024;2022-09-12T02:05:33;94396.84;;;11.93;84.09
27643;BME280;15053;48.618;10.024;2022-09-12T02:08:16;94388.22;;;11.92;84.25
27643;BME280;15053;48.618;10.024;2022-09-12T02:10:50;94393.16;;;11.94;84.12
27643;BME280;15053;48.618;10.024;2022-09-12T02:13:33;94393.53;;;11.87;83.34
27643;BME280;15053;48.618;10.024;2022-09-12T02:16:15;94390.19;;;11.87;83.13
27643;BME280;15053;48.618;10.024;2022-09-12T02:18:46;94390.56;;;11.80;83.31
27643;BME280;15053;48.618;10.024;2022-09-12T02:21:16;94390.66;;;11.75;82.99
27643;BME280;15053;48.618;10.024;2022-09-12T02:23:47;94390.94;;;11.73;83.16
27643;BME280;15053;48.618;10.024;2022-09-12T02:26:31;94397.72;;;11.74;83.27
27643;BME280;15053;48.618;10.024;2022-09-12T02:29:00;94388.34;;;11.73;83.12
27643;BME280;15053;48.618;10.024;2022-09-12T02:31:33;94389.88;;;11.74;83.03
27643;BME280;15053;48.618;10.024;2022-09-12T02:34:10;94394.13;;;11.70;83.05
27643;BME280;15053;48.618;10.024;2022-09-12T02:36:48;94395.28;;;11.64;82.81
27643;BME280;15053;48.618;10.024;2022-09-12T02:39:17;94391.78;;;11.55;82.57
27643;BME280;15053;48.618;10.024;2022-09-12T02:41:47;94384.84;;;11.51;83.10
27643;BME280;15053;48.618;10.024;2022-09-12T02:44:16;94382.50;;;11.49;83.04
27643;BME280;15053;48.618;10.024;2022-09-12T02:46:46;94378.31;;;11.48;82.97
27643;BME280;15053;48.618;10.024;2022-09-12T02:49:15;94377.84;;;11.46;82.98
27643;BME280;15053;48.618;10.024;2022-09-12T02:51:42;94374.19;;;11.47;83.67
27643;BME280;15053;48.618;10.024;2022-09-12T02:54:09;94378.84;;;11.50;83.67
27643;BME280;15053;48.618;10.024;2022-09-12T02:56:40;94379.63;;;11.51;82.91
27643;BME280;15053;48.618;10.024;2022-09-12T02:59:08;94370.59;;;11.43;82.85
27643;BME280;15053;48.618;10.024;2022-09-12T03:01:45;94369.44;;;11.36;82.63
27643;BME280;15053;48.618;10.024;2022-09-12T03:07:15;94369.13;;;11.23;82.53
27643;BME280;15053;48.618;10.024;2022-09-12T03:15:07;94363.72;;;11.20;83.06
27643;BME280;15053;48.618;10.024;2022-09-12T03:17:48;94369.22;;;11.18;83.28
27643;BME280;15053;48.618;10.024;2022-09-12T03:23:23;94361.69;;;11.17;83.60
27643;BME280;15053;48.618;10.024;2022-09-12T03:26:05;94370.88;;;11.14;83.80
27643;BME280;15053;48.618;10.024;2022-09-12T03:28:36;94355.88;;;11.06;84.03
27643;BME280;15053;48.618;10.024;2022-09-12T03:31:15;94361.88;;;11.07;84.23
27643;BME280;15053;48.618;10.024;2022-09-12T03:33:43;94366.78;;;11.08;84.15
27643;BME280;15053;48.618;10.024;2022-09-12T03:36:21;94356.94;;;11.05;84.74
27643;BME280;15053;48.618;10.024;2022-09-12T03:38:48;94359.84;;;11.04;84.52
27643;BME280;15053;48.618;10.024;2022-09-12T03:41:14;94367.09;;;11.07;84.96
27643;BME280;15053;48.618;10.024;2022-09-12T03:43:41;94366.00;;;11.08;85.41
27643;BME280;15053;48.618;10.024;2022-09-12T03:46:08;94364.66;;;11.10;85.04
27643;BME280;15053;48.618;10.024;2022-09-12T03:48:35;94362.63;;;11.07;85.11
27643;BME280;15053;48.618;10.024;2022-09-12T03:51:03;94360.81;;;11.08;85.60
27643;BME280;15053;48.618;10.024;2022-09-12T03:53:30;94358.88;;;11.13;85.83
27643;BME280;15053;48.618;10.024;2022-09-12T03:55:57;94364.78;;;11.19;86.10
27643;BME280;15053;48.618;10.024;2022-09-12T03:58:24;94364.50;;;11.20;86.15
27643;BME280;15053;48.618;10.024;2022-09-12T04:00:54;94359.47;;;11.24;86.28
27643;BME280;15053;48.618;10.024;2022-09-12T04:03:21;94355.59;;;11.21;86.19
27643;BME280;15053;48.618;10.024;2022-09-12T04:05:48;94362.84;;;11.24;85.90
27643;BME280;15053;48.618;10.024;2022-09-12T04:08:14;94356.38;;;11.22;85.80
27643;BME280;15053;48.618;10.024;2022-09-12T04:10:41;94367.38;;;11.19;85.57
27643;BME280;15053;48.618;10.024;2022-09-12T04:13:07;94362.75;;;11.16;85.56
27643;BME280;15053;48.618;10.024;2022-09-12T04:15:34;94367.97;;;11.16;85.32
27643;BME280;15053;48.618;10.024;2022-09-12T04:18:00;94354.25;;;11.10;84.88
27643;BME280;15053;48.618;10.024;2022-09-12T04:20:31;94358.84;;;11.00;84.64
27643;BME280;15053;48.618;10.024;2022-09-12T04:22:58;94366.75;;;10.95;84.96
27643;BME280;15053;48.618;10.024;2022-09-12T04:25:24;94362.31;;;10.95;85.15
27643;BME280;15053;48.618;10.024;2022-09-12T04:27:52;94357.91;;;10.96;84.79
27643;BME280;15053;48.618;10.024;2022-09-12T04:30:19;94360.50;;;10.96;84.78
27643;BME280;15053;48.618;10.024;2022-09-12T04:32:45;94355.84;;;10.93;84.66
27643;BME280;15053;48.618;10.024;2022-09-12T04:35:12;94352.25;;;10.89;84.55
27643;BME280;15053;48.618;10.024;2022-09-12T04:37:39;94359.88;;;10.85;84.55
27643;BME280;15053;48.618;10.024;2022-09-12T04:40:06;94360.25;;;10.79;84.60
27643;BME280;15053;48.618;10.024;2022-09-12T04:42:33;94361.88;;;10.75;84.55
27643;BME280;15053;48.618;10.024;2022-09-12T04:44:59;94361.94;;;10.70;85.13
27643;BME280;15053;48.618;10.024;2022-09-12T04:47:26;94355.06;;;10.60;84.74
27643;BME280;15053;48.618;10.024;2022-09-12T04:49:53;94364.34;;;10.66;85.01
27643;BME280;15053;48.618;10.024;2022-09-12T04:52:20;94368.78;;;10.65;84.84
27643;BME280;15053;48.618;10.024;2022-09-12T04:54:46;94369.84;;;10.64;84.71
27643;BME280;15053;48.618;10.024;2022-09-12T04:57:13;94364.16;;;10.62;84.87
27643;BME280;15053;48.618;10.024;2022-09-12T04:59:40;94363.16;;;10.58;84.93
27643;BME280;15053;48.618;10.024;2022-09-12T05:02:06;94356.97;;;10.54;84.86
27643;BME280;15053;48.618;10.024;2022-09-12T05:04:33;94359.78;;;10.58;84.81
27643;BME280;15053;48.618;10.024;2022-09-12T05:07:01;94363.16;;;10.58;85.00
27643;BME280;15053;48.618;10.024;2022-09-12T05:09:28;94356.97;;;10.54;85.11
27643;BME280;15053;48.618;10.024;2022-09-12T05:11:55;94365.69;;;10.63;85.00
27643;BME280;15053;48.618;10.024;2022-09-12T05:14:31;94365.97;;;10.62;85.09
27643;BME280;15053;48.618;10.024;2022-09-12T05:16:58;94370.63;;;10.65;85.20
27643;BME280;15053;48.618;10.024;2022-09-12T05:19:28;94362.03;;;10.64;85.44
27643;BME280;15053;48.618;10.024;2022-09-12T05:21:55;94362.09;;;10.59;85.77
27643;BME280;15053;48.618;10.024;2022-09-12T05:24:22;94369.53;;;10.66;85.86
27643;BME280;15053;48.618;10.024;2022-09-12T05:26:50;94366.59;;;10.73;85.79
27643;BME280;15053;48.618;10.024;2022-09-12T05:29:16;94357.16;;;10.77;85.78
27643;BME280;15053;48.618;10.024;2022-09-12T05:31:43;94369.59;;;10.80;85.81
27643;BME280;15053;48.618;10.024;2022-09-12T05:34:10;94374.81;;;10.80;85.41
27643;BME280;15053;48.618;10.024;2022-09-12T05:36:36;94370.88;;;10.82;85.52
27643;BME280;15053;48.618;10.024;2022-09-12T05:39:04;94378.09;;;10.85;85.79
27643;BME280;15053;48.618;10.024;2022-09-12T05:41:32;94377.84;;;10.87;85.77
27643;BME280;15053;48.618;10.024;2022-09-12T05:44:01;94379.00;;;10.94;86.10
27643;BME280;15053;48.618;10.024;2022-09-12T05:46:30;94379.69;;;11.00;86.01
27643;BME280;15053;48.618;10.024;2022-09-12T05:49:02;94371.78;;;11.05;86.28
27643;BME280;15053;48.618;10.024;2022-09-12T05:51:33;94377.59;;;11.15;86.57
27643;BME280;15053;48.618;10.024;2022-09-12T05:54:01;94379.06;;;11.21;86.12
27643;BME280;15053;48.618;10.024;2022-09-12T05:56:31;94377.16;;;11.27;86.08
27643;BME280;15053;48.618;10.024;2022-09-12T05:59:01;94383.84;;;11.33;85.92
27643;BME280;15053;48.618;10.024;2022-09-12T06:01:29;94383.94;;;11.42;86.16
27643;BME280;15053;48.618;10.024;2022-09-12T06:03:59;94390.53;;;11.53;86.50
27643;BME280;15053;48.618;10.024;2022-09-12T06:06:27;94386.66;;;11.64;86.52
27643;BME280;15053;48.618;10.024;2022-09-12T06:08:59;94387.28;;;11.74;86.81
27643;BME280;15053;48.618;10.024;2022-09-12T06:11:28;94382.94;;;11.83;86.37
27643;BME280;15053;48.618;10.024;2022-09-12T06:13:56;94387.16;;;11.93;86.50
27643;BME280;15053;48.618;10.024;2022-09-12T06:16:25;94381.72;;;12.03;87.46
27643;BME280;15053;48.618;10.024;2022-09-12T06:18:54;94378.63;;;12.15;87.23
27643;BME280;15053;48.618;10.024;2022-09-12T06:21:23;94383.06;;;12.28;87.50
27643;BME280;15053;48.618;10.024;2022-09-12T06:23:52;94388.25;;;12.41;87.36
27643;BME280;15053;48.618;10.024;2022-09-12T06:26:20;94371.13;;;12.49;87.60
27643;BME280;15053;48.618;10.024;2022-09-12T06:28:49;94371.34;;;12.61;87.52
27643;BME280;15053;48.618;10.024;2022-09-12T06:31:19;94379.63;;;12.77;87.30
27643;BME280;15053;48.618;10.024;2022-09-12T06:33:48;94365.53;;;12.86;87.27
27643;BME280;15053;48.618;10.024;2022-09-12T06:36:27;94375.66;;;13.01;87.36
27643;BME280;15053;48.618;10.024;2022-09-12T06:38:59;94367.75;;;13.15;87.94
27643;BME280;15053;48.618;10.024;2022-09-12T06:41:27;94374.16;;;13.31;88.18
27643;BME280;15053;48.618;10.024;2022-09-12T06:43:54;94379.31;;;13.45;88.68
27643;BME280;15053;48.618;10.024;2022-09-12T06:46:21;94381.22;;;13.62;88.43
27643;BME280;15053;48.618;10.024;2022-09-12T06:48:48;94376.06;;;13.79;88.51
27643;BME280;15053;48.618;10.024;2022-09-12T06:51:17;94376.88;;;13.96;89.30
27643;BME280;15053;48.618;10.024;2022-09-12T06:53:46;94376.59;;;14.15;89.30
27643;BME280;15053;48.618;10.024;2022-09-12T06:58:41;94372.22;;;14.50;89.68
27643;BME280;15053;48.618;10.024;2022-09-12T07:01:11;94374.81;;;14.67;89.71
27643;BME280;15053;48.618;10.024;2022-09-12T07:03:39;94372.03;;;14.81;89.57
27643;BME280;15053;48.618;10.024;2022-09-12T07:06:11;94367.72;;;14.93;89.69
27643;BME280;15053;48.618;10.024;2022-09-12T07:08:39;94370.97;;;15.07;89.52
27643;BME280;15053;48.618;10.024;2022-09-12T07:11:16;94375.56;;;15.19;89.05
27643;BME280;15053;48.618;10.024;2022-09-12T07:13:45;94366.59;;;15.28;88.86
27643;BME280;15053;48.618;10.024;2022-09-12T07:16:13;94373.03;;;15.40;88.64
27643;BME280;15053;48.618;10.024;2022-09-12T07:18:49;94367.47;;;15.50;88.46
27643;BME280;15053;48.618;10.024;2022-09-12T07:21:16;94363.75;;;15.59;88.01
27643;BME280;15053;48.618;10.024;2022-09-12T07:23:43;94357.34;;;15.69;87.54
27643;BME280;15053;48.618;10.024;2022-09-12T07:26:12;94362.47;;;15.74;87.00
27643;BME280;15053;48.618;10.024;2022-09-12T07:28:38;94364.28;;;15.82;86.91
27643;BME280;15053;48.618;10.024;2022-09-12T07:31:10;94372.88;;;15.91;86.34
27643;BME280;15053;48.618;10.024;2022-09-12T07:33:38;94375.63;;;15.94;86.28
27643;BME280;15053;48.618;10.024;2022-09-12T07:36:10;94366.63;;;16.04;86.01
27643;BME280;15053;48.618;10.024;2022-09-12T07:38:37;94377.84;;;16.13;85.74
27643;BME280;15053;48.618;10.024;2022-09-12T07:41:18;94371.16;;;16.24;85.08
27643;BME280;15053;48.618;10.024;2022-09-12T07:43:45;94374.81;;;16.32;84.74
27643;BME280;15053;48.618;10.024;2022-09-12T07:46:13;94371.22;;;16.36;84.22
27643;BME280;15053;48.618;10.024;2022-09-12T07:48:40;94378.16;;;16.41;83.80
27643;BME280;15053;48.618;10.024;2022-09-12T07:51:08;94377.97;;;16.46;83.14
27643;BME280;15053;48.618;10.024;2022-09-12T07:53:37;94376.53;;;16.48;82.53
27643;BME280;15053;48.618;10.024;2022-09-12T07:56:06;94378.25;;;16.53;81.73
27643;BME280;15053;48.618;10.024;2022-09-12T07:58:34;94380.69;;;16.58;81.34
27643;BME280;15053;48.618;10.024;2022-09-12T08:01:13;94382.22;;;16.59;81.16
27643;BME280;15053;48.618;10.024;2022-09-12T08:03:41;94383.78;;;16.60;80.77
27643;BME280;15053;48.618;10.024;2022-09-12T08:06:13;94384.53;;;16.61;80.59
27643;BME280;15053;48.618;10.024;2022-09-12T08:08:41;94391.78;;;16.64;80.34
27643;BME280;15053;48.618;10.024;2022-09-12T08:11:10;94385.25;;;16.70;80.42
27643;BME280;15053;48.618;10.024;2022-09-12T08:13:38;94389.22;;;16.76;80.32
27643;BME280;15053;48.618;10.024;2022-09-12T08:16:14;94389.94;;;16.85;79.73
27643;BME280;15053;48.618;10.024;2022-09-12T08:18:40;94391.72;;;16.93;79.55
27643;BME280;15053;48.618;10.024;2022-09-12T08:21:12;94393.97;;;17.03;78.88
27643;BME280;15053;48.618;10.024;2022-09-12T08:23:39;94385.09;;;17.07;78.47
27643;BME280;15053;48.618;10.024;2022-09-12T08:26:06;94389.63;;;17.19;78.08
27643;BME280;15053;48.618;10.024;2022-09-12T08:28:34;94387.09;;;17.23;78.09
27643;BME280;15053;48.618;10.024;2022-09-12T08:31:09;94395.56;;;17.28;77.71
27643;BME280;15053;48.618;10.024;2022-09-12T08:33:37;94397.56;;;17.31;76.98
27643;BME280;15053;48.618;10.024;2022-09-12T08:36:09;94393.06;;;17.32;76.32
27643;BME280;15053;48.618;10.024;2022-09-12T08:38:39;94401.97;;;17.39;76.31
27643;BME280;15053;48.618;10.024;2022-09-12T08:41:27;94401.22;;;17.51;75.81
27643;BME280;15053;48.618;10.024;2022-09-12T08:46:28;94394.81;;;17.60;74.75
27643;BME280;15053;48.618;10.024;2022-09-12T08:48:59;94390.00;;;17.62;74.16
27643;BME280;15053;48.618;10.024;2022-09-12T08:51:27;94392.75;;;17.66;73.86
27643;BME280;15053;48.618;10.024;2022-09-12T08:53:56;94399.00;;;17.74;73.93
27643;BME280;15053;48.618;10.024;2022-09-12T08:56:25;94398.69;;;17.87;73.39
27643;BME280;15053;48.618;10.024;2022-09-12T08:58:57;94392.84;;;17.94;72.70
27643;BME280;15053;48.618;10.024;2022-09-12T09:01:31;94392.44;;;18.04;72.69
27643;BME280;15053;48.618;10.024;2022-09-12T09:04:08;94394.41;;;18.19;72.42
27643;BME280;15053;48.618;10.024;2022-09-12T09:07:14;94394.94;;;18.24;71.51
27643;BME280;15053;48.618;10.024;2022-09-12T09:12:21;94389.25;;;18.35;69.96
27643;BME280;15053;48.618;10.024;2022-09-12T09:15:20;94385.81;;;18.46;70.03
27643;BME280;15053;48.618;10.024;2022-09-12T09:17:56;94382.88;;;18.48;69.93
27643;BME280;15053;48.618;10.024;2022-09-12T09:20:31;94389.56;;;18.57;70.13
27643;BME280;15053;48.618;10.024;2022-09-12T09:23:34;94385.09;;;18.73;69.53
27643;BME280;15053;48.618;10.024;2022-09-12T09:26:09;94381.25;;;18.83;69.17
27643;BME280;15053;48.618;10.024;2022-09-12T09:28:48;94377.34;;;18.93;69.20
27643;BME280;15053;48.618;10.024;2022-09-12T09:31:23;94387.47;;;19.03;68.75
27643;BME280;15053;48.618;10.024;2022-09-12T09:33:54;94382.09;;;19.15;68.23
27643;BME280;15053;48.618;10.024;2022-09-12T09:36:39;94382.63;;;19.20;67.10
27643;BME280;15053;48.618;10.024;2022-09-12T09:44:29;94388.84;;;19.40;65.76
27643;BME280;15053;48.618;10.024;2022-09-12T09:46:57;94379.81;;;19.41;65.19
27643;BME280;15053;48.618;10.024;2022-09-12T09:49:28;94380.59;;;19.41;64.79
27643;BME280;15053;48.618;10.024;2022-09-12T09:51:56;94383.75;;;19.47;64.66
27643;BME280;15053;48.618;10.024;2022-09-12T09:54:36;94388.19;;;19.59;64.67
27643;BME280;15053;48.618;10.024;2022-09-12T10:00:26;94387.19;;;19.79;63.93
27643;BME280;15053;48.618;10.024;2022-09-12T10:05:53;94378.25;;;19.99;62.98
27643;BME280;15053;48.618;10.024;2022-09-12T10:08:25;94386.00;;;20.08;62.95
27643;BME280;15053;48.618;10.024;2022-09-12T10:16:21;94386.00;;;20.08;61.99
27643;BME280;15053;48.618;10.024;2022-09-12T10:18:50;94377.81;;;20.13;62.38
27643;BME280;15053;48.618;10.024;2022-09-12T10:21:45;94378.16;;;20.27;61.90
27643;BME280;15053;48.618;10.024;2022-09-12T10:24:23;94373.94;;;20.41;61.74
27643;BME280;15053;48.618;10.024;2022-09-12T10:27:06;94370.41;;;20.53;61.13
27643;BME280;15053;48.618;10.024;2022-09-12T10:29:39;94369.44;;;20.61;60.87
27643;BME280;15053;48.618;10.024;2022-09-12T10:32:46;94363.19;;;20.69;60.47
27643;BME280;15053;48.618;10.024;2022-09-12T10:35:29;94362.91;;;20.74;60.18
27643;BME280;15053;48.618;10.024;2022-09-12T10:37:57;94360.50;;;20.85;60.05
27643;BME280;15053;48.618;10.024;2022-09-12T10:40:27;94369.13;;;21.01;59.88
27643;BME280;15053;48.618;10.024;2022-09-12T10:42:59;94363.41;;;21.18;59.95
27643;BME280;15053;48.618;10.024;2022-09-12T10:45:28;94372.53;;;21.40;59.16
27643;BME280;15053;48.618;10.024;2022-09-12T10:47:57;94372.78;;;21.54;58.68
27643;BME280;15053;48.618;10.024;2022-09-12T10:50:38;94373.41;;;21.70;58.57
27643;BME280;15053;48.618;10.024;2022-09-12T10:53:20;94373.16;;;21.75;58.42
27643;BME280;15053;48.618;10.024;2022-09-12T10:56:07;94370.50;;;21.75;57.73
27643;BME280;15053;48.618;10.024;2022-09-12T11:01:49;94374.53;;;21.88;57.35
27643;BME280;15053;48.618;10.024;2022-09-12T11:09:35;94372.16;;;21.83;55.42
27643;BME280;15053;48.618;10.024;2022-09-12T11:15:22;94364.50;;;22.01;54.81
27643;BME280;15053;48.618;10.024;2022-09-12T11:18:14;94366.72;;;22.21;54.41
27643;BME280;15053;48.618;10.024;2022-09-12T11:21:10;94356.78;;;22.45;53.48
27643;BME280;15053;48.618;10.024;2022-09-12T11:23:53;94366.69;;;22.48;53.27
27643;BME280;15053;48.618;10.024;2022-09-12T11:35:22;94344.28;;;23.01;51.78
27643;BME280;15053;48.618;10.024;2022-09-12T11:40:48;94345.38;;;23.33;50.59
27643;BME280;15053;48.618;10.024;2022-09-12T11:43:42;94332.59;;;23.42;50.10
27643;BME280;15053;48.618;10.024;2022-09-12T11:59:53;94334.88;;;24.35;45.60
27643;BME280;15053;48.618;10.024;2022-09-12T12:02:29;94332.31;;;24.53;46.36
27643;BME280;15053;48.618;10.024;2022-09-12T12:05:22;94324.41;;;24.71;45.24
27643;BME280;15053;48.618;10.024;2022-09-12T12:12:58;94316.16;;;24.97;45.44
27643;BME280;15053;48.618;10.024;2022-09-12T12:15:27;94324.16;;;24.97;44.71
27643;BME280;15053;48.618;10.024;2022-09-12T12:18:14;94316.13;;;24.83;43.24
27643;BME280;15053;48.618;10.024;2022-09-12T12:20:43;94312.63;;;24.79;43.87
27643;BME280;15053;48.618;10.024;2022-09-12T12:23:23;94311.94;;;24.85;44.12
27643;BME280;15053;48.618;10.024;2022-09-12T12:25:53;94305.47;;;24.93;43.09
27643;BME280;15053;48.618;10.024;2022-09-12T12:31:16;94295.84;;;24.67;42.61
27643;BME280;15053;48.618;10.024;2022-09-12T12:36:36;94285.53;;;24.55;44.32
27643;BME280;15053;48.618;10.024;2022-09-12T12:42:02;94287.88;;;24.75;43.56
27643;BME280;15053;48.618;10.024;2022-09-12T12:47:24;94272.59;;;24.64;43.71
27643;BME280;15053;48.618;10.024;2022-09-12T12:49:59;94274.13;;;24.65;43.65
27643;BME280;15053;48.618;10.024;2022-09-12T12:52:30;94277.59;;;24.77;44.16
27643;BME280;15053;48.618;10.024;2022-09-12T12:54:59;94273.50;;;24.93;43.71
27643;BME280;15053;48.618;10.024;2022-09-12T13:00:06;94275.53;;;25.49;43.18
27643;BME280;15053;48.618;10.024;2022-09-12T13:02:38;94272.88;;;25.70;43.01
27643;BME280;15053;48.618;10.024;2022-09-12T13:05:18;94278.97;;;25.82;41.30
27643;BME280;15053;48.618;10.024;2022-09-12T13:07:45;94261.41;;;25.91;41.53
27643;BME280;15053;48.618;10.024;2022-09-12T13:10:24;94264.06;;;26.19;41.46
27643;BME280;15053;48.618;10.024;2022-09-12T13:12:59;94261.78;;;26.18;40.77
27643;BME280;15053;48.618;10.024;2022-09-12T13:18:03;94270.53;;;26.36;40.32
27643;BME280;15053;48.618;10.024;2022-09-12T13:20:34;94263.22;;;26.47;39.69
27643;BME280;15053;48.618;10.024;2022-09-12T13:23:03;94269.72;;;26.53;39.61
27643;BME280;15053;48.618;10.024;2022-09-12T13:25:34;94267.75;;;26.64;38.07
27643;BME280;15053;48.618;10.024;2022-09-12T13:28:03;94274.19;;;26.74;37.64
27643;BME280;15053;48.618;10.024;2022-09-12T13:30:33;94266.19;;;26.81;37.91
27643;BME280;15053;48.618;10.024;2022-09-12T13:35:52;94261.69;;;26.53;36.02
27643;BME280;15053;48.618;10.024;2022-09-12T13:41:12;94260.19;;;26.38;34.04
27643;BME280;15053;48.618;10.024;2022-09-12T13:43:43;94259.03;;;26.46;34.93
27643;BME280;15053;48.618;10.024;2022-09-12T13:46:17;94244.94;;;26.38;36.27
27643;BME280;15053;48.618;10.024;2022-09-12T13:48:47;94251.41;;;26.37;35.70
27643;BME280;15053;48.618;10.024;2022-09-12T13:51:23;94251.84;;;26.22;35.16
27643;BME280;15053;48.618;10.024;2022-09-12T13:53:52;94252.63;;;26.26;36.05
27643;BME280;15053;48.618;10.024;2022-09-12T13:56:21;94248.75;;;26.45;35.95
27643;BME280;15053;48.618;10.024;2022-09-12T13:58:57;94243.03;;;26.39;33.78
27643;BME280;15053;48.618;10.024;2022-09-12T14:01:36;94241.16;;;26.25;36.61
27643;BME280;15053;48.618;10.024;2022-09-12T14:04:20;94240.69;;;26.48;36.17
27643;BME280;15053;48.618;10.024;2022-09-12T14:07:21;94242.91;;;26.78;35.12
27643;BME280;15053;48.618;10.024;2022-09-12T14:09:54;94234.69;;;27.13;35.72
27643;BME280;15053;48.618;10.024;2022-09-12T14:12:39;94234.97;;;27.26;35.89
27643;BME280;15053;48.618;10.024;2022-09-12T14:15:20;94231.16;;;27.30;33.88
27643;BME280;15053;48.618;10.024;2022-09-12T14:17:52;94237.38;;;27.06;34.46
27643;BME280;15053;48.618;10.024;2022-09-12T14:20:21;94234.84;;;26.81;34.88
27643;BME280;15053;48.618;10.024;2022-09-12T14:22:51;94231.44;;;26.70;37.44
27643;BME280;15053;48.618;10.024;2022-09-12T14:25:21;94225.69;;;26.82;38.02
27643;BME280;15053;48.618;10.024;2022-09-12T14:27:53;94225.13;;;27.16;37.33
27643;BME280;15053;48.618;10.024;2022-09-12T14:30:34;94218.09;;;27.36;37.64
27643;BME280;15053;48.618;10.024;2022-09-12T14:36:11;94207.34;;;27.46;34.33
27643;BME280;15053;48.618;10.024;2022-09-12T14:38:42;94203.22;;;27.31;35.04
27643;BME280;15053;48.618;10.024;2022-09-12T14:41:13;94198.94;;;27.44;35.98
27643;BME280;15053;48.618;10.024;2022-09-12T14:43:46;94190.88;;;27.48;36.18
27643;BME280;15053;48.618;10.024;2022-09-12T14:46:32;94196.22;;;27.48;36.61
27643;BME280;15053;48.618;10.024;2022-09-12T14:49:06;94193.22;;;27.39;36.68
27643;BME280;15053;48.618;10.024;2022-09-12T14:51:42;94189.03;;;27.38;37.13
27643;BME280;15053;48.618;10.024;2022-09-12T14:54:34;94182.50;;;27.46;37.51
27643;BME280;15053;48.618;10.024;2022-09-12T14:57:54;94183.88;;;27.61;37.99
27643;BME280;15053;48.618;10.024;2022-09-12T14:59:51;94180.69;;;27.77;37.60
27643;BME280;15053;48.618;10.024;2022-09-12T15:05:14;94178.91;;;28.00;37.64
27643;BME280;15053;48.618;10.024;2022-09-12T15:10:24;94171.94;;;27.69;36.74
27643;BME280;15053;48.618;10.024;2022-09-12T15:15:31;94178.72;;;27.81;37.64
27643;BME280;15053;48.618;10.024;2022-09-12T15:17:58;94178.28;;;27.86;38.31
27643;BME280;15053;48.618;10.024;2022-09-12T15:20:30;94179.34;;;27.95;37.70
27643;BME280;15053;48.618;10.024;2022-09-12T15:22:57;94172.50;;;27.91;38.00
27643;BME280;15053;48.618;10.024;2022-09-12T15:25:24;94178.19;;;27.96;37.71
27643;BME280;15053;48.618;10.024;2022-09-12T15:27:52;94173.25;;;27.91;38.45